createdAt,value
2019-05-03T00:02:27.753Z,2.77
2019-05-03T00:05:12.864Z,3.00
2019-05-03T00:07:42.836Z,2.50
2019-05-03T00:10:13.586Z,2.83
2019-05-03T00:12:43.989Z,2.67
2019-05-03T00:15:21.641Z,2.60
2019-05-03T00:17:52.645Z,2.83
2019-05-03T00:20:22.661Z,2.40
2019-05-03T00:22:52.492Z,2.23
2019-05-03T00:25:22.295Z,2.67
2019-05-03T00:27:52.739Z,2.53
2019-05-03T00:30:22.797Z,1.67
2019-05-03T00:32:52.534Z,1.33
2019-05-03T00:35:42.434Z,2.10
2019-05-03T00:38:13.982Z,1.47
2019-05-03T00:40:43.814Z,1.47
2019-05-03T00:43:13.609Z,2.20
2019-05-03T00:45:43.617Z,1.50
2019-05-03T00:48:13.438Z,1.70
2019-05-03T00:50:43.254Z,2.30
2019-05-03T00:53:13.133Z,1.87
2019-05-03T00:55:42.870Z,2.03
2019-05-03T00:58:13.002Z,1.60
2019-05-03T01:00:42.922Z,1.37
2019-05-03T01:03:12.717Z,1.80
2019-05-03T01:05:42.862Z,1.50
2019-05-03T01:08:12.789Z,1.27
2019-05-03T01:10:42.698Z,0.90
2019-05-03T01:13:12.496Z,1.20
2019-05-03T01:15:49.206Z,1.50
2019-05-03T01:18:21.805Z,1.67
2019-05-03T01:20:51.927Z,1.07
2019-05-03T01:23:22.016Z,1.50
2019-05-03T01:25:51.841Z,1.17
2019-05-03T01:28:21.688Z,1.40
2019-05-03T01:30:51.917Z,1.50
2019-05-03T01:33:22.619Z,0.93
2019-05-03T01:35:52.509Z,1.40
2019-05-03T01:38:22.752Z,1.37
2019-05-03T01:40:53.202Z,1.60
2019-05-03T01:43:23.292Z,1.90
2019-05-03T01:45:54.070Z,1.50
2019-05-03T01:48:33.845Z,1.23
2019-05-03T01:51:21.987Z,1.27
2019-05-03T01:53:52.358Z,1.77
2019-05-03T01:56:22.405Z,1.37
2019-05-03T01:58:52.494Z,1.33
2019-05-03T02:01:56.466Z,1.30
2019-05-03T02:04:54.125Z,1.53
2019-05-03T02:07:24.017Z,1.83
2019-05-03T02:09:53.757Z,1.80
2019-05-03T02:12:23.510Z,1.77
2019-05-03T02:14:53.275Z,2.20
2019-05-03T02:17:23.018Z,1.97
2019-05-03T02:19:52.824Z,1.87
2019-05-03T02:22:22.678Z,1.90
2019-05-03T02:24:52.695Z,1.90
2019-05-03T02:27:22.493Z,1.80
2019-05-03T02:29:52.546Z,2.13
2019-05-03T02:32:23.298Z,2.07
2019-05-03T02:34:54.155Z,2.40
2019-05-03T02:37:24.155Z,1.97
2019-05-03T02:39:57.272Z,1.90
2019-05-03T02:42:27.373Z,3.03
2019-05-03T02:44:58.122Z,2.70
2019-05-03T02:47:47.390Z,2.33
2019-05-03T02:50:19.777Z,2.57
2019-05-03T02:52:49.729Z,1.67
2019-05-03T02:55:19.836Z,2.47
2019-05-03T02:57:49.749Z,2.80
2019-05-03T03:00:25.568Z,2.57
2019-05-03T03:02:55.841Z,2.43
2019-05-03T03:05:25.752Z,2.27
2019-05-03T03:07:56.079Z,2.20
2019-05-03T03:10:27.136Z,2.90
2019-05-03T03:12:58.989Z,3.00
2019-05-03T03:15:32.326Z,2.77
2019-05-03T03:18:02.165Z,2.00
2019-05-03T03:20:35.766Z,3.27
2019-05-03T03:23:07.391Z,3.70
2019-05-03T03:25:40.179Z,3.93
2019-05-03T03:28:12.706Z,3.73
2019-05-03T03:31:38.010Z,3.70
2019-05-03T03:34:09.944Z,4.03
2019-05-03T03:36:59.397Z,3.57
2019-05-03T03:39:21.272Z,3.93
2019-05-03T03:41:51.787Z,4.50
2019-05-03T03:44:21.753Z,4.83
2019-05-03T03:46:51.636Z,5.60
2019-05-03T03:49:21.920Z,4.80
2019-05-03T03:51:52.426Z,5.60
2019-05-03T03:54:22.726Z,5.97
2019-05-03T03:57:03.593Z,3.97
2019-05-03T03:59:29.014Z,5.60
2019-05-03T04:01:59.295Z,5.83
2019-05-03T04:04:29.946Z,7.10
2019-05-03T04:07:01.299Z,6.20
2019-05-03T04:09:32.243Z,6.33
2019-05-03T04:12:02.365Z,6.67
2019-05-03T04:14:39.592Z,5.53
2019-05-03T04:17:20.240Z,5.40
2019-05-03T04:19:52.254Z,5.37
2019-05-03T04:22:25.430Z,6.47
2019-05-03T04:24:56.027Z,8.30
2019-05-03T04:27:27.432Z,6.70
2019-05-03T04:29:57.699Z,8.27
2019-05-03T04:32:29.124Z,8.60
2019-05-03T04:34:59.155Z,8.73
2019-05-03T04:37:29.042Z,8.30
2019-05-03T04:39:59.132Z,9.10
2019-05-03T04:42:28.938Z,8.13
2019-05-03T04:44:59.097Z,9.40
2019-05-03T04:47:28.833Z,9.27
2019-05-03T04:49:58.729Z,11.13
2019-05-03T04:52:28.940Z,9.80
2019-05-03T04:54:59.919Z,9.17
2019-05-03T04:57:45.151Z,11.03
2019-05-03T05:00:11.368Z,11.17
2019-05-03T05:02:41.667Z,9.43
2019-05-03T05:05:11.760Z,11.87
2019-05-03T05:07:41.547Z,10.60
2019-05-03T05:10:11.443Z,11.97
2019-05-03T05:12:41.542Z,10.90
2019-05-03T05:15:12.247Z,10.73
2019-05-03T05:17:51.478Z,11.97
2019-05-03T05:20:35.135Z,11.00
2019-05-03T05:23:05.127Z,11.43
2019-05-03T05:25:39.680Z,11.60
2019-05-03T05:28:21.214Z,10.87
2019-05-03T05:30:51.151Z,12.87
2019-05-03T05:33:20.956Z,11.63
2019-05-03T05:35:51.438Z,11.07
2019-05-03T05:38:21.305Z,13.17
2019-05-03T05:40:51.530Z,12.63
2019-05-03T05:43:21.391Z,13.20
2019-05-03T05:45:51.284Z,12.20
2019-05-03T05:48:27.011Z,12.80
2019-05-03T05:50:56.870Z,13.83
2019-05-03T05:53:26.621Z,12.77
2019-05-03T05:56:11.995Z,11.87
2019-05-03T05:58:49.472Z,13.67
2019-05-03T06:01:38.435Z,11.73
2019-05-03T06:04:10.007Z,12.60
2019-05-03T06:06:57.462Z,11.50
2019-05-03T06:09:52.081Z,11.00
2019-05-03T06:12:31.221Z,10.63
2019-05-03T06:15:06.166Z,9.73
2019-05-03T06:17:45.099Z,11.87
2019-05-03T06:20:34.894Z,12.93
2019-05-03T06:23:09.415Z,11.60
2019-05-03T06:25:41.358Z,11.13
2019-05-03T06:28:21.149Z,10.10
2019-05-03T06:31:10.094Z,11.33
2019-05-03T06:33:39.999Z,10.37
2019-05-03T06:36:09.834Z,12.27
2019-05-03T06:38:42.186Z,11.40
2019-05-03T06:41:11.136Z,11.03
2019-05-03T06:43:45.074Z,12.73
2019-05-03T06:46:15.628Z,11.87
2019-05-03T06:48:44.445Z,11.83
2019-05-03T06:51:19.463Z,12.53
2019-05-03T06:53:50.407Z,11.87
2019-05-03T06:56:19.253Z,10.57
2019-05-03T06:58:49.388Z,10.90
2019-05-03T07:01:28.626Z,10.33
2019-05-03T07:04:24.550Z,11.07
2019-05-03T07:07:15.407Z,11.03
2019-05-03T07:09:49.465Z,10.27
2019-05-03T07:12:19.271Z,12.30
2019-05-03T07:14:50.458Z,9.77
2019-05-03T07:17:20.439Z,9.10
2019-05-03T07:19:50.193Z,10.07
2019-05-03T07:22:20.088Z,10.53
2019-05-03T07:24:49.910Z,10.20
2019-05-03T07:27:19.662Z,9.97
2019-05-03T07:29:49.666Z,10.93
2019-05-03T07:32:19.503Z,6.97
2019-05-03T07:34:49.268Z,11.37
2019-05-03T07:37:19.063Z,10.60
2019-05-03T07:39:48.805Z,10.33
2019-05-03T07:42:18.561Z,10.57
2019-05-03T07:44:48.335Z,9.47
2019-05-03T07:47:18.173Z,10.10
2019-05-03T07:49:47.955Z,9.20
2019-05-03T07:52:17.819Z,8.83
2019-05-03T07:54:47.854Z,10.90
2019-05-03T07:57:31.774Z,9.93
2019-05-03T08:00:01.886Z,9.83
2019-05-03T08:02:32.929Z,9.57
2019-05-03T08:05:05.106Z,9.33
2019-05-03T08:07:35.598Z,11.17
2019-05-03T08:10:06.643Z,10.00
2019-05-03T08:12:36.458Z,9.70
2019-05-03T08:15:06.686Z,9.53
2019-05-03T08:17:36.561Z,9.40
2019-05-03T08:20:07.651Z,10.43
2019-05-03T08:22:37.655Z,9.30
2019-05-03T08:25:08.735Z,10.17
2019-05-03T08:27:38.637Z,10.53
2019-05-03T08:30:11.099Z,8.83
2019-05-03T08:32:58.567Z,5.90
2019-05-03T08:35:55.323Z,6.60
2019-05-03T08:38:25.728Z,7.47
2019-05-03T08:40:57.547Z,7.60
2019-05-03T08:43:27.643Z,7.47
2019-05-03T08:45:57.567Z,8.47
2019-05-03T08:48:27.409Z,6.97
2019-05-03T08:50:57.310Z,7.10
2019-05-03T08:53:28.030Z,5.97
2019-05-03T08:55:58.057Z,4.90
2019-05-03T08:58:27.883Z,4.83
2019-05-03T09:00:57.710Z,3.73
2019-05-03T09:03:27.712Z,3.00
2019-05-03T09:05:57.448Z,3.63
2019-05-03T09:08:27.406Z,3.30
2019-05-03T09:11:09.862Z,2.87
2019-05-03T09:13:55.895Z,3.27
2019-05-03T09:16:25.888Z,2.80
2019-05-03T09:18:55.896Z,3.13
2019-05-03T09:21:25.840Z,3.03
2019-05-03T09:23:56.802Z,3.73
2019-05-03T09:26:29.508Z,3.70
2019-05-03T09:28:58.843Z,3.23
2019-05-03T09:31:29.394Z,4.20
2019-05-03T09:34:00.579Z,4.33
2019-05-03T09:36:30.353Z,5.00
2019-05-03T09:39:00.584Z,4.27
2019-05-03T09:41:32.235Z,4.90
2019-05-03T09:44:02.222Z,4.40
2019-05-03T09:46:32.328Z,5.37
2019-05-03T09:49:11.090Z,5.93
2019-05-03T09:51:35.022Z,5.70
2019-05-03T09:54:14.909Z,5.10
2019-05-03T09:56:58.717Z,6.10
2019-05-03T09:59:29.355Z,5.53
2019-05-03T10:02:00.530Z,5.83
2019-05-03T10:04:30.535Z,7.00
2019-05-03T10:07:00.500Z,6.10
2019-05-03T10:09:30.426Z,6.40
2019-05-03T10:12:00.973Z,6.80
2019-05-03T10:14:31.699Z,6.77
2019-05-03T10:17:20.532Z,7.27
2019-05-03T10:19:50.367Z,7.03
2019-05-03T10:22:25.951Z,7.53
2019-05-03T10:24:56.060Z,7.73
2019-05-03T10:27:25.881Z,8.63
2019-05-03T10:30:09.125Z,9.93
2019-05-03T10:32:35.470Z,9.87
2019-05-03T10:35:07.489Z,11.90
2019-05-03T10:37:37.630Z,11.10
2019-05-03T10:40:08.329Z,11.77
2019-05-03T10:42:38.352Z,12.27
2019-05-03T10:45:08.609Z,10.93
2019-05-03T10:47:38.657Z,11.20
2019-05-03T10:50:09.359Z,11.30
2019-05-03T10:52:44.683Z,13.10
2019-05-03T10:55:15.952Z,12.10
2019-05-03T10:57:48.639Z,11.37
2019-05-03T11:00:42.570Z,10.07
2019-05-03T11:02:58.658Z,10.60
2019-05-03T11:05:28.436Z,9.13
2019-05-03T11:07:58.431Z,9.07
2019-05-03T11:10:28.211Z,8.73
2019-05-03T11:12:58.037Z,8.33
2019-05-03T11:15:28.034Z,9.67
2019-05-03T11:17:57.858Z,8.47
2019-05-03T11:20:34.781Z,8.63
2019-05-03T11:23:06.339Z,8.40
2019-05-03T11:25:37.261Z,8.23
2019-05-03T11:28:15.994Z,9.60
2019-05-03T11:30:53.097Z,9.50
2019-05-03T11:33:32.130Z,9.00
2019-05-03T11:36:25.297Z,10.67
2019-05-03T11:38:55.868Z,8.67
2019-05-03T11:41:31.990Z,7.77
2019-05-03T11:44:18.325Z,8.07
2019-05-03T11:46:48.150Z,7.77
2019-05-03T11:49:17.968Z,7.97
2019-05-03T11:51:47.831Z,7.10
2019-05-03T11:54:17.586Z,6.90
2019-05-03T11:56:47.687Z,7.10
2019-05-03T11:59:17.523Z,6.70
2019-05-03T12:01:55.395Z,5.87
2019-05-03T12:04:25.327Z,6.20
2019-05-03T12:06:55.404Z,6.57
2019-05-03T12:09:25.323Z,5.97
2019-05-03T12:11:55.886Z,5.80
2019-05-03T12:14:25.667Z,5.60
2019-05-03T12:17:16.567Z,5.93
2019-05-03T12:19:36.930Z,6.40
2019-05-03T12:22:06.148Z,6.70
2019-05-03T12:24:37.018Z,6.37
2019-05-03T12:27:07.439Z,5.80
2019-05-03T12:29:37.270Z,7.10
2019-05-03T12:32:07.059Z,5.93
2019-05-03T12:34:37.115Z,4.73
2019-05-03T12:37:07.010Z,4.83
2019-05-03T12:39:36.910Z,4.83
2019-05-03T12:42:06.810Z,4.33
2019-05-03T12:44:36.705Z,4.83
2019-05-03T12:47:06.675Z,4.33
2019-05-03T12:49:36.519Z,5.00
2019-05-03T12:52:10.326Z,5.00
2019-05-03T12:54:39.575Z,5.20
2019-05-03T12:57:09.357Z,6.33
2019-05-03T12:59:48.240Z,7.23
2019-05-03T13:02:24.839Z,6.03
2019-05-03T13:04:55.415Z,6.93
2019-05-03T13:07:45.498Z,6.87
2019-05-03T13:10:21.736Z,7.77
2019-05-03T13:12:52.441Z,8.73
2019-05-03T13:15:20.105Z,8.17
2019-05-03T13:17:49.986Z,7.73
2019-05-03T13:20:20.428Z,5.53
2019-05-03T13:22:50.587Z,7.97
2019-05-03T13:25:20.539Z,8.33
2019-05-03T13:27:50.376Z,8.07
2019-05-03T13:30:21.780Z,7.63
2019-05-03T13:32:51.850Z,3.67
2019-05-03T13:35:21.851Z,8.47
2019-05-03T13:37:51.596Z,8.10
2019-05-03T13:40:25.032Z,8.13
2019-05-03T13:43:01.708Z,7.40
2019-05-03T13:45:27.313Z,7.20
2019-05-03T13:47:58.306Z,7.23
2019-05-03T13:50:31.901Z,6.80
2019-05-03T13:53:01.788Z,5.47
2019-05-03T13:55:32.483Z,6.07
2019-05-03T13:58:02.795Z,6.43
2019-05-03T14:00:34.517Z,5.40
2019-05-03T14:03:06.093Z,6.37
2019-05-03T14:05:36.377Z,7.10
2019-05-03T14:08:06.663Z,5.37
2019-05-03T14:10:39.283Z,7.00
2019-05-03T14:13:09.485Z,6.43
2019-05-03T14:15:40.111Z,6.90
2019-05-03T14:18:10.461Z,5.93
2019-05-03T14:21:12.299Z,6.23
2019-05-03T14:24:00.281Z,5.83
2019-05-03T14:26:30.296Z,5.40
2019-05-03T14:29:00.169Z,6.27
2019-05-03T14:31:30.251Z,5.70
2019-05-03T14:34:00.263Z,6.57
2019-05-03T14:36:30.086Z,5.10
2019-05-03T14:38:59.994Z,5.57
2019-05-03T14:41:29.853Z,6.13
2019-05-03T14:43:59.731Z,8.03
2019-05-03T14:46:33.088Z,6.70
2019-05-03T14:49:01.459Z,9.93
2019-05-03T14:51:34.735Z,10.20
2019-05-03T14:54:05.705Z,10.87
2019-05-03T14:56:47.262Z,8.23
2019-05-03T14:59:34.728Z,23.30
2019-05-03T15:02:11.285Z,5.63
2019-05-03T15:04:41.311Z,5.53
2019-05-03T15:07:11.330Z,5.93
2019-05-03T15:09:41.339Z,4.90
2019-05-03T15:12:11.229Z,4.67
2019-05-03T15:14:41.179Z,4.30
2019-05-03T15:17:11.008Z,6.60
2019-05-03T15:19:41.633Z,6.13
2019-05-03T15:22:11.810Z,6.27
2019-05-03T15:24:41.642Z,4.90
2019-05-03T15:27:11.534Z,5.00
2019-05-03T15:29:41.542Z,4.67
2019-05-03T15:32:11.937Z,7.77
2019-05-03T15:34:42.005Z,4.13
2019-05-03T15:37:12.023Z,4.53
2019-05-03T15:39:42.151Z,4.80
2019-05-03T15:42:12.026Z,5.17
2019-05-03T15:44:57.910Z,5.43
2019-05-03T15:47:35.107Z,5.53
2019-05-03T15:50:05.206Z,5.43
2019-05-03T15:52:35.627Z,5.23
2019-05-03T15:55:06.067Z,5.00
2019-05-03T15:57:36.410Z,4.73
2019-05-03T16:00:08.759Z,4.80
2019-05-03T16:02:39.815Z,4.60
2019-05-03T16:05:10.677Z,4.87
2019-05-03T16:07:40.499Z,5.63
2019-05-03T16:10:10.418Z,5.17
2019-05-03T16:12:40.229Z,3.80
2019-05-03T16:15:10.411Z,2.70
2019-05-03T16:17:40.342Z,3.37
2019-05-03T16:20:10.475Z,3.00
2019-05-03T16:22:40.595Z,3.30
2019-05-03T16:25:11.422Z,3.30
2019-05-03T16:27:52.257Z,3.67
2019-05-03T16:30:42.930Z,3.53
2019-05-03T16:33:26.209Z,3.30
2019-05-03T16:35:46.595Z,4.43
2019-05-03T16:38:16.841Z,4.53
2019-05-03T16:40:46.845Z,3.03
2019-05-03T16:43:17.163Z,4.10
2019-05-03T16:45:47.233Z,3.73
2019-05-03T16:48:18.544Z,2.63
2019-05-03T16:50:48.732Z,3.10
2019-05-03T16:53:20.040Z,5.03
2019-05-03T16:55:50.212Z,4.57
2019-05-03T16:58:20.556Z,3.43
2019-05-03T17:00:50.830Z,3.43
2019-05-03T17:03:38.142Z,3.17
2019-05-03T17:06:07.981Z,3.33
2019-05-03T17:08:59.463Z,3.77
2019-05-03T17:11:29.384Z,3.83
2019-05-03T17:13:59.166Z,3.03
2019-05-03T17:16:29.475Z,3.27
2019-05-03T17:18:59.393Z,3.67
2019-05-03T17:21:29.458Z,5.60
2019-05-03T17:23:59.404Z,5.33
2019-05-03T17:26:29.345Z,4.90
2019-05-03T17:28:59.203Z,5.80
2019-05-03T17:31:29.055Z,6.33
2019-05-03T17:33:59.193Z,5.87
2019-05-03T17:36:30.160Z,6.33
2019-05-03T17:39:04.938Z,6.23
2019-05-03T17:41:54.696Z,6.03
2019-05-03T17:44:29.110Z,6.47
2019-05-03T17:46:59.292Z,6.70
2019-05-03T17:49:29.320Z,7.97
2019-05-03T17:52:21.169Z,6.10
2019-05-03T17:55:09.745Z,6.17
2019-05-03T17:58:01.144Z,6.47
2019-05-03T18:00:44.384Z,6.03
2019-05-03T18:03:14.811Z,7.10
2019-05-03T18:05:50.029Z,7.30
2019-05-03T18:08:37.478Z,7.13
2019-05-03T18:11:14.728Z,5.70
2019-05-03T18:13:44.903Z,6.30
2019-05-03T18:16:15.074Z,7.10
2019-05-03T18:18:45.446Z,7.37
2019-05-03T18:21:15.410Z,7.00
2019-05-03T18:23:45.592Z,6.50
2019-05-03T18:26:15.559Z,6.53
2019-05-03T18:28:45.444Z,6.53
2019-05-03T18:31:15.338Z,7.03
2019-05-03T18:33:45.174Z,6.33
2019-05-03T18:36:16.047Z,6.20
2019-05-03T18:38:46.129Z,6.27
2019-05-03T18:41:16.033Z,6.70
2019-05-03T18:43:54.944Z,6.20
2019-05-03T18:46:27.927Z,5.63
2019-05-03T18:48:57.841Z,5.50
2019-05-03T18:51:27.869Z,5.20
2019-05-03T18:53:57.805Z,6.50
2019-05-03T18:56:27.959Z,5.77
2019-05-03T18:58:57.903Z,6.23
2019-05-03T19:01:27.915Z,5.30
2019-05-03T19:04:04.882Z,4.90
2019-05-03T19:06:34.839Z,5.63
2019-05-03T19:09:25.289Z,5.43
2019-05-03T19:12:06.221Z,4.67
2019-05-03T19:14:36.053Z,5.40
2019-05-03T19:17:35.551Z,5.67
2019-05-03T19:20:11.490Z,5.80
2019-05-03T19:22:41.391Z,5.60
2019-05-03T19:25:11.421Z,5.10
2019-05-03T19:27:41.317Z,5.83
2019-05-03T19:30:11.487Z,5.20
2019-05-03T19:32:41.322Z,5.07
2019-05-03T19:35:12.681Z,5.70
2019-05-03T19:37:46.373Z,6.90
2019-05-03T19:40:14.231Z,6.60
2019-05-03T19:42:44.731Z,6.20
2019-05-03T19:45:15.284Z,5.40
2019-05-03T19:47:45.102Z,5.33
2019-05-03T19:50:15.837Z,5.83
2019-05-03T19:53:10.359Z,5.40
2019-05-03T19:55:40.287Z,5.17
2019-05-03T19:58:10.428Z,5.30
2019-05-03T20:00:58.930Z,5.50
2019-05-03T20:03:35.273Z,5.10
2019-05-03T20:06:25.225Z,5.53
2019-05-03T20:09:01.807Z,5.90
2019-05-03T20:11:34.668Z,5.53
2019-05-03T20:14:04.775Z,5.87
2019-05-03T20:16:35.645Z,5.10
2019-05-03T20:19:18.008Z,5.37
2019-05-03T20:21:37.430Z,4.77
2019-05-03T20:24:07.347Z,5.73
2019-05-03T20:26:37.543Z,5.57
2019-05-03T20:29:07.437Z,5.40
2019-05-03T20:31:37.211Z,5.30
2019-05-03T20:34:07.017Z,5.73
2019-05-03T20:36:36.826Z,6.57
2019-05-03T20:39:07.050Z,6.57
2019-05-03T20:41:37.197Z,6.17
2019-05-03T20:44:18.635Z,6.27
2019-05-03T20:46:55.025Z,6.50
2019-05-03T20:49:25.905Z,6.57
2019-05-03T20:51:55.648Z,6.83
2019-05-03T20:54:25.421Z,5.70
2019-05-03T20:56:55.216Z,6.03
2019-05-03T20:59:25.344Z,6.63
2019-05-03T21:01:55.445Z,7.07
2019-05-03T21:04:25.289Z,7.20
2019-05-03T21:06:56.021Z,6.93
2019-05-03T21:09:25.901Z,7.27
2019-05-03T21:11:55.685Z,7.43
2019-05-03T21:14:25.441Z,7.67
2019-05-03T21:17:14.822Z,7.33
2019-05-03T21:19:49.719Z,6.80
2019-05-03T21:22:24.815Z,7.57
2019-05-03T21:25:13.296Z,7.37
2019-05-03T21:27:44.838Z,7.37
2019-05-03T21:30:15.118Z,7.50
2019-05-03T21:32:45.251Z,7.10
2019-05-03T21:35:15.283Z,7.77
2019-05-03T21:37:45.483Z,7.77
2019-05-03T21:40:15.667Z,7.73
2019-05-03T21:42:45.609Z,7.97
2019-05-03T21:45:17.314Z,7.90
2019-05-03T21:47:54.595Z,8.13
2019-05-03T21:50:24.965Z,8.43
2019-05-03T21:52:57.893Z,8.93
2019-05-03T21:55:27.761Z,7.10
2019-05-03T21:57:57.661Z,8.30
2019-05-03T22:00:29.592Z,8.63
2019-05-03T22:03:01.138Z,9.33
2019-05-03T22:05:33.058Z,8.27
2019-05-03T22:08:04.492Z,8.87
2019-05-03T22:10:34.692Z,8.77
2019-05-03T22:13:04.948Z,8.67
2019-05-03T22:15:43.998Z,9.57
2019-05-03T22:18:20.809Z,8.30
2019-05-03T22:21:05.574Z,8.83
2019-05-03T22:23:41.746Z,8.27
2019-05-03T22:26:11.751Z,9.50
2019-05-03T22:28:41.670Z,9.00
2019-05-03T22:31:11.926Z,8.50
2019-05-03T22:33:41.779Z,7.93
2019-05-03T22:36:11.537Z,8.23
2019-05-03T22:38:41.289Z,9.23
2019-05-03T22:41:11.058Z,8.97
2019-05-03T22:43:40.809Z,8.90
2019-05-03T22:46:10.563Z,8.53
2019-05-03T22:48:40.307Z,9.27
2019-05-03T22:51:10.065Z,10.63
2019-05-03T22:53:39.821Z,9.33
2019-05-03T22:56:09.566Z,9.03
2019-05-03T22:58:39.394Z,11.07
2019-05-03T23:01:09.527Z,9.07
2019-05-03T23:03:44.651Z,10.10
2019-05-03T23:06:22.038Z,10.93
2019-05-03T23:08:45.718Z,9.37
2019-05-03T23:11:15.485Z,10.53
2019-05-03T23:14:01.371Z,10.57
2019-05-03T23:16:35.695Z,10.03
2019-05-03T23:19:05.795Z,11.20
2019-05-03T23:21:41.235Z,8.37
2019-05-03T23:24:11.423Z,9.70
2019-05-03T23:26:41.498Z,9.63
2019-05-03T23:29:11.327Z,11.40
2019-05-03T23:31:41.106Z,9.77
2019-05-03T23:34:10.883Z,10.43
2019-05-03T23:36:40.950Z,9.80
2019-05-03T23:39:10.765Z,10.73
2019-05-03T23:41:40.656Z,10.70
2019-05-03T23:44:10.474Z,10.47
2019-05-03T23:46:46.522Z,9.60
2019-05-03T23:49:17.229Z,11.00
2019-05-03T23:51:51.729Z,9.53
2019-05-03T23:54:21.647Z,11.83
2019-05-03T23:56:51.542Z,11.13
2019-05-03T23:59:21.426Z,10.70
